createdAt,value
2019-03-24T00:01:41.213Z,9.40
2019-03-24T00:04:45.916Z,9.40
2019-03-24T00:07:51.525Z,9.30
2019-03-24T00:10:38.556Z,9.30
2019-03-24T00:13:42.156Z,9.30
2019-03-24T00:17:02.478Z,9.20
2019-03-24T00:20:10.262Z,9.20
2019-03-24T00:26:52.719Z,9.10
2019-03-24T00:34:09.252Z,9.10
2019-03-24T00:37:26.848Z,8.90
2019-03-24T00:40:23.348Z,9.00
2019-03-24T00:43:11.063Z,9.00
2019-03-24T00:46:11.429Z,8.90
2019-03-24T00:49:25.412Z,8.90
2019-03-24T00:52:19.555Z,9.00
2019-03-24T00:55:27.488Z,8.90
2019-03-24T00:58:59.164Z,8.80
2019-03-24T01:02:06.185Z,8.80
2019-03-24T01:05:14.366Z,8.70
2019-03-24T01:08:25.925Z,8.60
2019-03-24T01:11:48.244Z,8.60
2019-03-24T01:14:51.900Z,8.50
2019-03-24T01:18:14.908Z,8.50
2019-03-24T01:21:05.072Z,8.40
2019-03-24T01:23:46.838Z,8.50
2019-03-24T01:26:38.614Z,8.40
2019-03-24T01:29:56.946Z,8.40
2019-03-24T01:32:39.899Z,8.30
2019-03-24T01:35:28.580Z,8.40
2019-03-24T01:38:07.311Z,8.40
2019-03-24T01:40:49.918Z,8.50
2019-03-24T01:43:36.461Z,8.40
2019-03-24T01:46:22.879Z,8.30
2019-03-24T01:49:04.852Z,8.30
2019-03-24T01:51:44.433Z,8.30
2019-03-24T01:54:35.376Z,8.30
2019-03-24T01:57:12.893Z,8.20
2019-03-24T02:00:10.839Z,8.20
2019-03-24T02:03:02.872Z,8.10
2019-03-24T02:05:54.369Z,8.10
2019-03-24T02:08:58.480Z,8.10
2019-03-24T02:11:39.356Z,8.20
2019-03-24T02:14:28.983Z,8.30
2019-03-24T02:25:25.415Z,8.30
2019-03-24T02:29:03.995Z,8.30
2019-03-24T02:32:03.594Z,8.20
2019-03-24T02:34:44.923Z,8.00
2019-03-24T02:37:29.384Z,8.00
2019-03-24T02:40:11.740Z,8.00
2019-03-24T02:42:47.153Z,8.00
2019-03-24T02:45:49.718Z,7.90
2019-03-24T02:49:01.143Z,7.90
2019-03-24T02:51:58.483Z,7.90
2019-03-24T02:55:00.507Z,8.00
2019-03-24T02:57:58.683Z,8.00
2019-03-24T03:00:53.436Z,8.10
2019-03-24T03:03:33.073Z,8.10
2019-03-24T03:06:30.688Z,8.10
2019-03-24T03:09:22.594Z,8.10
2019-03-24T03:12:02.094Z,8.20
2019-03-24T03:14:52.635Z,8.10
2019-03-24T03:17:51.086Z,8.10
2019-03-24T03:20:32.157Z,8.00
2019-03-24T03:23:12.235Z,7.90
2019-03-24T03:26:09.173Z,7.80
2019-03-24T03:28:50.846Z,7.80
2019-03-24T03:31:44.819Z,7.80
2019-03-24T03:34:38.425Z,7.70
2019-03-24T03:37:14.582Z,7.70
2019-03-24T03:39:56.951Z,7.70
2019-03-24T03:43:13.262Z,7.70
2019-03-24T03:45:59.489Z,7.70
2019-03-24T03:49:08.375Z,7.60
2019-03-24T03:52:08.721Z,7.70
2019-03-24T03:55:14.290Z,7.70
2019-03-24T03:58:16.466Z,7.70
2019-03-24T04:00:59.185Z,7.70
2019-03-24T04:03:44.245Z,7.70
2019-03-24T04:06:33.456Z,7.60
2019-03-24T04:09:19.268Z,7.60
2019-03-24T04:12:05.914Z,7.50
2019-03-24T04:14:49.359Z,7.50
2019-03-24T04:17:57.563Z,7.40
2019-03-24T04:20:57.479Z,7.40
2019-03-24T04:23:51.832Z,7.20
2019-03-24T04:26:46.571Z,7.20
2019-03-24T04:29:39.804Z,7.20
2019-03-24T04:32:33.971Z,7.10
2019-03-24T04:35:38.917Z,7.20
2019-03-24T04:38:28.885Z,7.10
2019-03-24T04:41:17.171Z,7.10
2019-03-24T04:43:56.914Z,7.10
2019-03-24T04:46:34.000Z,7.10
2019-03-24T04:49:30.693Z,7.10
2019-03-24T04:52:29.277Z,7.00
2019-03-24T04:55:23.212Z,7.10
2019-03-24T04:58:37.253Z,7.10
2019-03-24T05:01:36.692Z,7.00
2019-03-24T05:04:12.891Z,7.00
2019-03-24T05:07:09.444Z,6.90
2019-03-24T05:09:54.491Z,6.80
2019-03-24T05:12:32.094Z,6.80
2019-03-24T05:15:15.179Z,6.80
2019-03-24T05:18:03.559Z,6.70
2019-03-24T05:20:48.471Z,6.70
2019-03-24T05:23:53.973Z,6.70
2019-03-24T05:26:30.143Z,6.70
2019-03-24T05:29:16.825Z,6.70
2019-03-24T05:32:08.333Z,6.60
2019-03-24T05:35:00.856Z,6.60
2019-03-24T05:38:32.474Z,6.50
2019-03-24T05:42:03.887Z,6.50
2019-03-24T05:45:13.113Z,6.40
2019-03-24T05:47:55.516Z,6.50
2019-03-24T05:50:37.060Z,6.50
2019-03-24T05:53:44.108Z,6.40
2019-03-24T05:56:41.617Z,6.30
2019-03-24T05:59:29.674Z,6.50
2019-03-24T06:02:18.940Z,6.50
2019-03-24T06:05:17.185Z,6.50
2019-03-24T06:08:09.881Z,6.60
2019-03-24T06:11:18.878Z,6.60
2019-03-24T06:14:29.872Z,6.70
2019-03-24T06:17:12.039Z,6.70
2019-03-24T06:20:18.193Z,6.90
2019-03-24T06:23:15.732Z,7.00
2019-03-24T06:26:36.688Z,6.90
2019-03-24T06:32:38.948Z,7.10
2019-03-24T06:35:23.229Z,7.10
2019-03-24T06:38:29.949Z,7.20
2019-03-24T06:41:11.658Z,7.30
2019-03-24T06:43:58.246Z,8.10
2019-03-24T06:46:52.140Z,9.90
2019-03-24T06:50:17.286Z,10.90
2019-03-24T06:52:55.306Z,12.50
2019-03-24T06:55:33.489Z,13.30
2019-03-24T06:58:30.037Z,13.80
2019-03-24T07:01:44.265Z,14.20
2019-03-24T07:05:30.704Z,14.80
2019-03-24T07:07:47.211Z,15.10
2019-03-24T07:11:22.389Z,15.80
2019-03-24T07:14:19.022Z,15.70
2019-03-24T07:17:06.954Z,15.40
2019-03-24T07:19:47.718Z,16.40
2019-03-24T07:23:14.854Z,17.60
2019-03-24T07:25:55.747Z,16.70
2019-03-24T07:28:31.798Z,15.30
2019-03-24T07:31:15.029Z,15.10
2019-03-24T07:33:49.072Z,15.60
2019-03-24T07:36:39.725Z,15.90
2019-03-24T07:39:20.801Z,16.70
2019-03-24T07:42:16.258Z,17.20
2019-03-24T07:45:10.479Z,18.60
2019-03-24T07:47:56.366Z,19.20
2019-03-24T07:50:54.959Z,19.70
2019-03-24T07:53:44.175Z,20.30
2019-03-24T07:57:16.518Z,21.00
2019-03-24T08:08:15.280Z,22.20
2019-03-24T08:11:06.451Z,22.30
2019-03-24T08:14:09.461Z,22.80
2019-03-24T08:17:09.148Z,22.90
2019-03-24T08:19:55.694Z,22.70
2019-03-24T08:22:55.293Z,22.50
2019-03-24T08:25:34.416Z,22.40
2019-03-24T08:28:34.967Z,22.60
2019-03-24T08:31:15.114Z,22.50
2019-03-24T08:33:54.726Z,22.80
2019-03-24T08:37:01.602Z,22.80
2019-03-24T08:39:58.472Z,23.20
2019-03-24T08:42:49.794Z,23.20
2019-03-24T08:46:04.975Z,22.40
2019-03-24T08:48:48.534Z,21.30
2019-03-24T08:51:21.484Z,20.50
2019-03-24T08:53:56.915Z,20.50
2019-03-24T08:56:36.524Z,20.50
2019-03-24T08:59:15.950Z,20.70
2019-03-24T09:05:07.703Z,21.60
2019-03-24T09:07:53.191Z,21.70
2019-03-24T09:10:48.085Z,21.50
2019-03-24T09:13:33.682Z,21.60
2019-03-24T09:19:46.163Z,21.60
2019-03-24T09:24:14.397Z,21.40
2019-03-24T09:25:56.558Z,21.90
2019-03-24T09:28:41.694Z,22.90
2019-03-24T09:31:56.835Z,23.50
2019-03-24T09:34:58.784Z,23.40
2019-03-24T09:38:14.919Z,23.30
2019-03-24T09:41:03.624Z,23.90
2019-03-24T09:44:00.448Z,23.90
2019-03-24T09:47:00.029Z,23.80
2019-03-24T09:50:00.555Z,23.60
2019-03-24T09:52:54.075Z,23.40
2019-03-24T09:56:06.383Z,23.00
2019-03-24T09:59:32.961Z,22.50
2019-03-24T10:05:10.793Z,22.60
2019-03-24T10:08:46.818Z,22.30
2019-03-24T10:12:15.093Z,21.30
2019-03-24T10:15:52.590Z,21.10
2019-03-24T10:30:56.902Z,21.10
2019-03-24T10:42:21.060Z,21.10
2019-03-24T10:49:04.958Z,21.50
2019-03-24T10:56:28.263Z,21.10
2019-03-24T11:04:16.024Z,20.80
2019-03-24T11:07:59.889Z,21.00
2019-03-24T11:11:23.184Z,21.00
2019-03-24T11:18:28.940Z,20.30
2019-03-24T11:22:11.273Z,20.20
2019-03-24T11:28:50.559Z,20.80
2019-03-24T11:31:46.980Z,21.00
2019-03-24T11:34:22.984Z,20.30
2019-03-24T11:35:41.128Z,21.00
2019-03-24T11:38:30.263Z,20.90
2019-03-24T11:41:59.536Z,20.80
2019-03-24T11:45:33.286Z,20.50
2019-03-24T11:52:37.462Z,20.10
2019-03-24T11:55:49.576Z,20.20
2019-03-24T11:58:37.749Z,20.30
2019-03-24T12:02:06.765Z,20.10
2019-03-24T12:05:14.633Z,20.00
2019-03-24T12:08:50.189Z,20.40
2019-03-24T12:11:43.484Z,20.10
2019-03-24T12:14:45.950Z,20.00
2019-03-24T12:21:35.994Z,19.90
2019-03-24T12:24:39.764Z,19.90
2019-03-24T12:27:45.964Z,19.60
2019-03-24T12:30:48.710Z,19.60
2019-03-24T12:33:59.128Z,19.40
2019-03-24T12:37:16.321Z,19.30
2019-03-24T12:40:29.317Z,19.10
2019-03-24T12:43:21.394Z,18.90
2019-03-24T12:46:20.168Z,18.70
2019-03-24T12:49:35.515Z,18.70
2019-03-24T12:52:41.243Z,18.60
2019-03-24T13:00:17.334Z,18.20
2019-03-24T13:04:09.771Z,18.10
2019-03-24T13:07:10.218Z,17.80
2019-03-24T13:13:42.680Z,17.90
2019-03-24T13:16:46.509Z,17.90
2019-03-24T13:19:44.624Z,17.70
2019-03-24T13:22:34.062Z,17.40
2019-03-24T13:25:41.203Z,17.00
2019-03-24T13:29:24.216Z,16.70
2019-03-24T13:35:58.584Z,16.10
2019-03-24T13:39:08.780Z,16.20
2019-03-24T13:42:46.341Z,16.30
2019-03-24T13:45:44.053Z,17.30
2019-03-24T13:51:54.891Z,17.50
2019-03-24T13:54:51.054Z,16.90
2019-03-24T13:57:37.329Z,16.30
2019-03-24T14:00:10.459Z,16.10
2019-03-24T14:02:59.729Z,15.80
2019-03-24T14:06:14.313Z,15.60
2019-03-24T14:09:20.101Z,15.40
2019-03-24T14:12:04.751Z,15.40
2019-03-24T14:15:47.270Z,15.30
2019-03-24T14:22:09.009Z,15.00
2019-03-24T14:25:29.851Z,15.10
2019-03-24T14:29:08.852Z,15.00
2019-03-24T14:32:47.332Z,14.90
2019-03-24T14:35:59.187Z,14.80
2019-03-24T14:42:05.122Z,14.60
2019-03-24T14:45:29.473Z,14.50
2019-03-24T14:48:36.316Z,14.50
2019-03-24T14:51:48.723Z,14.40
2019-03-24T14:55:05.917Z,14.30
2019-03-24T14:58:29.689Z,14.50
2019-03-24T15:01:31.968Z,14.20
2019-03-24T15:04:51.905Z,14.00
2019-03-24T15:07:52.631Z,14.00
2019-03-24T15:11:10.112Z,14.10
2019-03-24T15:14:13.090Z,14.00
2019-03-24T15:17:20.514Z,14.30
2019-03-24T15:20:53.043Z,14.40
2019-03-24T15:23:56.619Z,14.30
2019-03-24T15:30:33.802Z,14.30
2019-03-24T15:33:22.574Z,14.30
2019-03-24T15:36:27.522Z,14.40
2019-03-24T15:39:42.072Z,14.40
2019-03-24T15:42:45.137Z,14.40
2019-03-24T15:46:03.571Z,14.20
2019-03-24T15:52:23.397Z,14.20
2019-03-24T15:55:18.092Z,14.30
2019-03-24T15:58:34.008Z,14.50
2019-03-24T16:01:27.871Z,14.40
2019-03-24T16:04:32.050Z,14.40
2019-03-24T16:07:16.124Z,14.40
2019-03-24T16:09:54.218Z,14.20
2019-03-24T16:12:34.444Z,14.20
2019-03-24T16:15:12.944Z,14.30
2019-03-24T16:17:45.066Z,14.30
2019-03-24T16:20:36.372Z,14.20
2019-03-24T16:23:19.471Z,14.40
2019-03-24T16:26:10.985Z,15.50
2019-03-24T16:28:52.923Z,14.70
2019-03-24T16:31:37.907Z,14.20
2019-03-24T16:34:29.031Z,14.00
2019-03-24T16:37:19.704Z,13.70
2019-03-24T16:40:42.580Z,13.60
2019-03-24T16:43:21.485Z,13.50
2019-03-24T16:46:36.593Z,13.30
2019-03-24T16:49:32.268Z,13.10
2019-03-24T16:53:19.422Z,13.10
2019-03-24T16:56:18.915Z,13.10
2019-03-24T16:59:13.360Z,12.90
2019-03-24T17:02:15.014Z,12.80
2019-03-24T17:05:29.126Z,12.80
2019-03-24T17:08:10.707Z,12.70
2019-03-24T17:11:19.111Z,12.70
2019-03-24T17:14:13.723Z,12.60
2019-03-24T17:17:46.816Z,12.60
2019-03-24T17:20:35.551Z,12.60
2019-03-24T17:23:28.022Z,12.40
2019-03-24T17:26:40.088Z,12.30
2019-03-24T17:29:36.050Z,12.20
2019-03-24T17:32:23.675Z,12.10
2019-03-24T17:35:22.764Z,12.10
2019-03-24T17:38:06.787Z,12.10
2019-03-24T17:41:23.245Z,12.00
2019-03-24T17:44:14.878Z,11.90
2019-03-24T17:47:15.647Z,11.80
2019-03-24T17:57:09.487Z,11.50
2019-03-24T18:07:55.334Z,11.50
2019-03-24T18:11:07.435Z,11.30
2019-03-24T18:14:02.520Z,11.30
2019-03-24T18:17:25.149Z,11.20
2019-03-24T18:21:10.799Z,11.10
2019-03-24T18:24:24.497Z,11.10
2019-03-24T18:27:16.319Z,10.90
2019-03-24T18:34:13.765Z,10.70
2019-03-24T18:37:43.400Z,10.60
2019-03-24T18:41:40.454Z,10.40
2019-03-24T18:45:11.580Z,10.40
2019-03-24T18:48:40.791Z,10.40
2019-03-24T18:51:41.999Z,10.40
2019-03-24T18:54:31.545Z,10.30
2019-03-24T18:57:52.639Z,10.30
2019-03-24T19:00:44.867Z,10.20
2019-03-24T19:04:05.090Z,10.10
2019-03-24T19:11:08.048Z,10.00
2019-03-24T19:14:17.430Z,9.90
2019-03-24T19:17:42.283Z,9.80
2019-03-24T19:20:58.004Z,9.80
2019-03-24T19:24:13.360Z,9.80
2019-03-24T19:27:06.221Z,9.80
2019-03-24T19:33:38.345Z,9.70
2019-03-24T19:37:00.213Z,9.60
2019-03-24T19:39:48.580Z,9.50
2019-03-24T19:47:39.936Z,9.50
2019-03-24T19:50:34.514Z,9.50
2019-03-24T19:53:24.767Z,9.60
2019-03-24T19:56:58.936Z,9.60
2019-03-24T20:00:15.262Z,9.50
2019-03-24T20:03:33.921Z,9.40
2019-03-24T20:07:28.123Z,9.40
2019-03-24T20:09:34.339Z,9.30
2019-03-24T20:12:29.701Z,9.30
2019-03-24T20:15:54.413Z,9.20
2019-03-24T20:19:19.182Z,9.10
2019-03-24T20:26:21.523Z,9.00
2019-03-24T20:29:19.662Z,8.90
2019-03-24T20:32:37.634Z,8.90
2019-03-24T20:35:45.888Z,8.90
2019-03-24T20:46:36.825Z,8.80
2019-03-24T20:53:59.683Z,8.60
2019-03-24T21:01:21.559Z,8.60
2019-03-24T21:04:20.395Z,8.10
2019-03-24T21:07:46.302Z,8.50
2019-03-24T21:11:19.844Z,8.50
2019-03-24T21:14:20.264Z,8.50
2019-03-24T21:17:37.106Z,8.40
2019-03-24T21:20:16.502Z,8.30
2019-03-24T21:23:12.723Z,8.30
2019-03-24T21:25:55.221Z,8.30
2019-03-24T21:28:44.070Z,8.20
2019-03-24T21:31:31.756Z,8.20
2019-03-24T21:34:36.500Z,8.20
2019-03-24T21:37:35.988Z,8.20
2019-03-24T21:40:39.899Z,8.10
2019-03-24T21:43:22.300Z,8.10
2019-03-24T21:46:33.738Z,8.30
2019-03-24T21:53:05.711Z,8.30
2019-03-24T21:56:17.512Z,8.20
2019-03-24T21:59:13.214Z,8.20
2019-03-24T22:01:58.926Z,8.20
2019-03-24T22:10:13.442Z,8.10
2019-03-24T22:13:09.779Z,8.10
2019-03-24T22:16:18.377Z,8.10
2019-03-24T22:19:18.963Z,8.10
2019-03-24T22:22:33.147Z,8.00
2019-03-24T22:25:28.187Z,8.00
2019-03-24T22:28:05.664Z,8.00
2019-03-24T22:31:30.700Z,8.00
2019-03-24T22:34:27.575Z,8.00
2019-03-24T22:37:39.076Z,8.00
2019-03-24T22:40:48.590Z,8.00
2019-03-24T22:44:25.154Z,8.00
2019-03-24T22:47:08.133Z,8.00
2019-03-24T22:49:57.533Z,7.90
2019-03-24T22:52:50.929Z,7.90
2019-03-24T22:56:19.723Z,7.90
2019-03-24T23:00:03.656Z,7.90
2019-03-24T23:02:28.110Z,7.80
2019-03-24T23:05:22.743Z,7.80
2019-03-24T23:08:10.847Z,7.80
2019-03-24T23:11:08.321Z,7.70
2019-03-24T23:17:15.913Z,7.60
2019-03-24T23:20:18.787Z,7.50
2019-03-24T23:23:42.738Z,7.40
2019-03-24T23:26:20.855Z,7.30
2019-03-24T23:29:19.421Z,7.30
2019-03-24T23:32:20.976Z,7.20
2019-03-24T23:35:40.076Z,7.20
2019-03-24T23:38:27.887Z,7.10
2019-03-24T23:41:18.118Z,7.00
2019-03-24T23:44:25.286Z,7.00
2019-03-24T23:47:04.074Z,6.90
2019-03-24T23:50:07.213Z,6.80
2019-03-24T23:53:00.164Z,6.80
2019-03-24T23:55:47.401Z,6.70
2019-03-24T23:58:39.648Z,6.70
